24.2°F
Current conditions from King Hill
Updated every 5 minutes
 
  Wednesday April 16, 2014

Station Historical Data
Daily Summary for April 27, 2011 Units:  Both    English   Metric
« Previous Day
Next Day »
Daily Weekly Monthly Yearly Custom
  High: Low: Average:
Temperature: 80.6 °F /  27 °C 54.9 °F /  12.7 °C 67.6 °F /  19.8 °C
Dew Point: 64.5 °F /  18.1 °C 52.1 °F /  11.2 °C 59.1 °F /  15.1 °C
Humidity: 96% 51% 76%
Wind Speed: 15.0mph /  24.1km/h - 5.9mph /  9.5km/h
Wind Gust: 39.0mph /  62.8km/h - -
Wind- - SSW
Pressure: 29.89 in /  1012.1 hPa 29.62 in /  1002.9 hPa -
Precipitation: 0.42 in /  10.7 mm    
Historical Graphs
 
 
Tabular Data for April 27, 2011
Time Temperature Dew Point Pressure Wind Wind Speed Wind Gust Humidity Daily Rainfall
00:00 55.6 °F /  13.1 °C 54.2 °F /  12.3 °C 29.85in /  1010.7hPa SE 1.0mph /  1.6km/h 3.0mph /  4.8km/h 95% 1.38in /  35.1mm
00:05 55.6 °F /  13.1 °C 54.2 °F /  12.3 °C 29.85in /  1010.7hPa SE 1.0mph /  1.6km/h 3.0mph /  4.8km/h 95% 0.02in /  0.5mm
00:10 56.4 °F /  13.6 °C 55.0 °F /  12.8 °C 29.86in /  1011.1hPa South 2.0mph /  3.2km/h 6.0mph /  9.7km/h 95% 0.04in /  1mm
00:15 56.8 °F /  13.8 °C 55.7 °F /  13.2 °C 29.86in /  1011.1hPa South 4.0mph /  6.4km/h 9.0mph /  14.5km/h 96% 0.06in /  1.5mm
00:25 56.5 °F /  13.6 °C 55.4 °F /  13 °C 29.85in /  1010.7hPa SW 4.0mph /  6.4km/h 7.0mph /  11.3km/h 96% 0.12in /  3mm
00:30 56.4 °F /  13.6 °C 55.0 °F /  12.8 °C 29.85in /  1010.7hPa South 4.0mph /  6.4km/h 9.0mph /  14.5km/h 95% 0.14in /  3.6mm
00:35 56.2 °F /  13.4 °C 54.8 °F /  12.7 °C 29.84in /  1010.4hPa SSW 2.0mph /  3.2km/h 9.0mph /  14.5km/h 95% 0.16in /  4.1mm
00:40 56.1 °F /  13.4 °C 55.0 °F /  12.8 °C 29.84in /  1010.4hPa SSW 1.0mph /  1.6km/h 5.0mph /  8km/h 96% 0.18in /  4.6mm
00:45 56.1 °F /  13.4 °C 55.0 °F /  12.8 °C 29.84in /  1010.4hPa SW 3.0mph /  4.8km/h 6.0mph /  9.7km/h 96% 0.20in /  5.1mm
00:50 56.1 °F /  13.4 °C 55.0 °F /  12.8 °C 29.84in /  1010.4hPa SSW 4.0mph /  6.4km/h 8.0mph /  12.9km/h 96% 0.22in /  5.6mm
00:55 56.1 °F /  13.4 °C 55.0 °F /  12.8 °C 29.84in /  1010.4hPa SSW 4.0mph /  6.4km/h 8.0mph /  12.9km/h 96% 0.24in /  6.1mm
01:00 56.2 °F /  13.4 °C 55.1 °F /  12.8 °C 29.84in /  1010.4hPa SW 5.0mph /  8km/h 10.0mph /  16.1km/h 96% 0.25in /  6.4mm
01:05 56.2 °F /  13.4 °C 55.1 °F /  12.8 °C 29.84in /  1010.4hPa SSW 5.0mph /  8km/h 10.0mph /  16.1km/h 96% 0.26in /  6.6mm
01:10 56.3 °F /  13.5 °C 55.2 °F /  12.9 °C 29.83in /  1010hPa South 4.0mph /  6.4km/h 8.0mph /  12.9km/h 96% 0.28in /  7.1mm
01:15 56.5 °F /  13.6 °C 55.4 °F /  13 °C 29.84in /  1010.4hPa SW 4.0mph /  6.4km/h 8.0mph /  12.9km/h 96% 0.29in /  7.4mm
01:20 56.4 °F /  13.6 °C 55.3 °F /  12.9 °C 29.83in /  1010hPa SSW 5.0mph /  8km/h 10.0mph /  16.1km/h 96% 0.30in /  7.6mm
01:25 56.6 °F /  13.7 °C 55.5 °F /  13.1 °C 29.83in /  1010hPa South 6.0mph /  9.7km/h 13.0mph /  20.9km/h 96% 0.32in /  8.1mm
01:30 56.9 °F /  13.8 °C 55.8 °F /  13.2 °C 29.82in /  1009.7hPa South 6.0mph /  9.7km/h 13.0mph /  20.9km/h 96% 0.34in /  8.6mm
01:40 57.7 °F /  14.3 °C 56.6 °F /  13.7 °C 29.81in /  1009.4hPa South 7.0mph /  11.3km/h 20.0mph /  32.2km/h 96% 0.38in /  9.7mm
01:45 57.8 °F /  14.3 °C 56.7 °F /  13.7 °C 29.81in /  1009.4hPa SSW 3.0mph /  4.8km/h 13.0mph /  20.9km/h 96% 0.40in /  10.2mm
01:50 58.0 °F /  14.4 °C 56.9 °F /  13.8 °C 29.81in /  1009.4hPa South 5.0mph /  8km/h 13.0mph /  20.9km/h 96% 0.41in /  10.4mm
01:55 58.2 °F /  14.6 °C 56.8 °F /  13.8 °C 29.80in /  1009hPa South 4.0mph /  6.4km/h 11.0mph /  17.7km/h 95% 0.42in /  10.7mm
02:00 58.3 °F /  14.6 °C 56.9 °F /  13.8 °C 29.80in /  1009hPa South 5.0mph /  8km/h 11.0mph /  17.7km/h 95% 0.42in /  10.7mm
02:10 58.4 °F /  14.7 °C 57.0 °F /  13.9 °C 29.78in /  1008.4hPa SSE 1.0mph /  1.6km/h 8.0mph /  12.9km/h 95% 0.42in /  10.7mm
02:15 58.6 °F /  14.8 °C 57.2 °F /  14 °C 29.78in /  1008.4hPa South 4.0mph /  6.4km/h 8.0mph /  12.9km/h 95% 0.42in /  10.7mm
02:20 58.7 °F /  14.8 °C 57.3 °F /  14.1 °C 29.78in /  1008.4hPa South 3.0mph /  4.8km/h 9.0mph /  14.5km/h 95% 0.42in /  10.7mm
02:25 58.7 °F /  14.8 °C 57.0 °F /  13.9 °C 29.78in /  1008.4hPa Calm   9.0mph /  14.5km/h 94% 0.42in /  10.7mm
02:30 58.5 °F /  14.7 °C 56.8 °F /  13.8 °C 29.78in /  1008.4hPa SW 1.0mph /  1.6km/h 5.0mph /  8km/h 94% 0.42in /  10.7mm
02:40 57.6 °F /  14.2 °C 55.6 °F /  13.1 °C 29.79in /  1008.7hPa Calm   6.0mph /  9.7km/h 93% 0.42in /  10.7mm
02:45 57.5 °F /  14.2 °C 55.8 °F /  13.2 °C 29.80in /  1009hPa SW 1.0mph /  1.6km/h 4.0mph /  6.4km/h 94% 0.42in /  10.7mm
02:50 57.4 °F /  14.1 °C 55.7 °F /  13.2 °C 29.81in /  1009.4hPa SW 2.0mph /  3.2km/h 5.0mph /  8km/h 94% 0.42in /  10.7mm
02:55 57.5 °F /  14.2 °C 55.8 °F /  13.2 °C 29.81in /  1009.4hPa South 2.0mph /  3.2km/h 6.0mph /  9.7km/h 94% 0.42in /  10.7mm
03:00 57.5 °F /  14.2 °C 55.8 °F /  13.2 °C 29.81in /  1009.4hPa SW 1.0mph /  1.6km/h 6.0mph /  9.7km/h 94% 0.42in /  10.7mm
03:05 57.5 °F /  14.2 °C 55.8 °F /  13.2 °C 29.81in /  1009.4hPa SSW 3.0mph /  4.8km/h 7.0mph /  11.3km/h 94% 0.42in /  10.7mm
03:10 57.3 °F /  14.1 °C 55.6 °F /  13.1 °C 29.82in /  1009.7hPa SSW 3.0mph /  4.8km/h 7.0mph /  11.3km/h 94% 0.42in /  10.7mm
03:15 57.1 °F /  13.9 °C 55.1 °F /  12.8 °C 29.82in /  1009.7hPa SSW 4.0mph /  6.4km/h 9.0mph /  14.5km/h 93% 0.42in /  10.7mm
03:20 56.9 °F /  13.8 °C 54.9 °F /  12.7 °C 29.82in /  1009.7hPa SW 3.0mph /  4.8km/h 9.0mph /  14.5km/h 93% 0.42in /  10.7mm
03:25 56.4 °F /  13.6 °C 54.4 °F /  12.4 °C 29.83in /  1010hPa SSW 7.0mph /  11.3km/h 10.0mph /  16.1km/h 93% 0.42in /  10.7mm
03:30 55.9 °F /  13.3 °C 53.6 °F /  12 °C 29.82in /  1009.7hPa SSW 5.0mph /  8km/h 10.0mph /  16.1km/h 92% 0.42in /  10.7mm
03:40 55.1 °F /  12.8 °C 52.8 °F /  11.6 °C 29.82in /  1009.7hPa SSW 7.0mph /  11.3km/h 12.0mph /  19.3km/h 92% 0.42in /  10.7mm
03:45 54.9 °F /  12.7 °C 52.6 °F /  11.4 °C 29.82in /  1009.7hPa SSW 6.0mph /  9.7km/h 12.0mph /  19.3km/h 92% 0.42in /  10.7mm
03:50 55.0 °F /  12.8 °C 53.0 °F /  11.7 °C 29.82in /  1009.7hPa SSW 6.0mph /  9.7km/h 12.0mph /  19.3km/h 93% 0.42in /  10.7mm
03:55 55.1 °F /  12.8 °C 52.8 °F /  11.6 °C 29.82in /  1009.7hPa SSW 5.0mph /  8km/h 12.0mph /  19.3km/h 92% 0.42in /  10.7mm
04:05 55.3 °F /  12.9 °C 53.0 °F /  11.7 °C 29.82in /  1009.7hPa SSW 4.0mph /  6.4km/h 14.0mph /  22.5km/h 92% 0.42in /  10.7mm
04:10 55.4 °F /  13 °C 52.8 °F /  11.6 °C 29.82in /  1009.7hPa SSW 5.0mph /  8km/h 12.0mph /  19.3km/h 91% 0.42in /  10.7mm
04:15 55.3 °F /  12.9 °C 52.7 °F /  11.5 °C 29.82in /  1009.7hPa SSW 5.0mph /  8km/h 12.0mph /  19.3km/h 91% 0.42in /  10.7mm
04:20 55.4 °F /  13 °C 52.8 °F /  11.6 °C 29.82in /  1009.7hPa SSW 6.0mph /  9.7km/h 10.0mph /  16.1km/h 91% 0.42in /  10.7mm
04:25 55.5 °F /  13.1 °C 52.9 °F /  11.6 °C 29.81in /  1009.4hPa SSW 7.0mph /  11.3km/h 11.0mph /  17.7km/h 91% 0.42in /  10.7mm
04:30 55.5 °F /  13.1 °C 52.6 °F /  11.4 °C 29.81in /  1009.4hPa SSW 5.0mph /  8km/h 11.0mph /  17.7km/h 90% 0.42in /  10.7mm
04:35 55.5 °F /  13.1 °C 52.6 °F /  11.4 °C 29.80in /  1009hPa South 5.0mph /  8km/h 12.0mph /  19.3km/h 90% 0.42in /  10.7mm
04:40 55.8 °F /  13.2 °C 52.9 °F /  11.6 °C 29.80in /  1009hPa South 5.0mph /  8km/h 12.0mph /  19.3km/h 90% 0.42in /  10.7mm
04:45 55.9 °F /  13.3 °C 52.7 °F /  11.5 °C 29.79in /  1008.7hPa SSW 4.0mph /  6.4km/h 12.0mph /  19.3km/h 89% 0.42in /  10.7mm
04:50 56.3 °F /  13.5 °C 53.1 °F /  11.7 °C 29.79in /  1008.7hPa SSW 5.0mph /  8km/h 10.0mph /  16.1km/h 89% 0.42in /  10.7mm
04:55 56.3 °F /  13.5 °C 52.8 °F /  11.6 °C 29.80in /  1009hPa SW 4.0mph /  6.4km/h 10.0mph /  16.1km/h 88% 0.42in /  10.7mm
05:00 56.0 °F /  13.3 °C 52.8 °F /  11.6 °C 29.81in /  1009.4hPa SSW 3.0mph /  4.8km/h 10.0mph /  16.1km/h 89% 0.42in /  10.7mm
05:05 55.6 °F /  13.1 °C 52.4 °F /  11.3 °C 29.81in /  1009.4hPa SSW 1.0mph /  1.6km/h 10.0mph /  16.1km/h 89% 0.42in /  10.7mm
05:10 55.3 °F /  12.9 °C 52.1 °F /  11.2 °C 29.81in /  1009.4hPa SSW 1.0mph /  1.6km/h 6.0mph /  9.7km/h 89% 0.42in /  10.7mm
05:15 55.3 °F /  12.9 °C 52.4 °F /  11.3 °C 29.81in /  1009.4hPa SSW 3.0mph /  4.8km/h 5.0mph /  8km/h 90% 0.42in /  10.7mm
05:20 55.3 °F /  12.9 °C 52.7 °F /  11.5 °C 29.82in /  1009.7hPa SSW 4.0mph /  6.4km/h 8.0mph /  12.9km/h 91% 0.42in /  10.7mm
05:25 55.3 °F /  12.9 °C 52.4 °F /  11.3 °C 29.82in /  1009.7hPa SSW 3.0mph /  4.8km/h 8.0mph /  12.9km/h 90% 0.42in /  10.7mm
05:30 55.3 °F /  12.9 °C 52.7 °F /  11.5 °C 29.82in /  1009.7hPa SSW 3.0mph /  4.8km/h 8.0mph /  12.9km/h 91% 0.42in /  10.7mm
05:40 55.3 °F /  12.9 °C 52.7 °F /  11.5 °C 29.84in /  1010.4hPa SSW 4.0mph /  6.4km/h 8.0mph /  12.9km/h 91% 0.42in /  10.7mm
05:45 55.4 °F /  13 °C 53.1 °F /  11.7 °C 29.84in /  1010.4hPa SSW 5.0mph /  8km/h 9.0mph /  14.5km/h 92% 0.42in /  10.7mm
05:50 55.5 °F /  13.1 °C 53.2 °F /  11.8 °C 29.84in /  1010.4hPa SSW 5.0mph /  8km/h 9.0mph /  14.5km/h 92% 0.42in /  10.7mm
05:55 55.7 °F /  13.2 °C 53.4 °F /  11.9 °C 29.84in /  1010.4hPa SSW 5.0mph /  8km/h 10.0mph /  16.1km/h 92% 0.42in /  10.7mm
06:00 55.8 °F /  13.2 °C 53.5 °F /  11.9 °C 29.83in /  1010hPa South 5.0mph /  8km/h 10.0mph /  16.1km/h 92% 0.42in /  10.7mm
06:05 56.0 °F /  13.3 °C 53.7 °F /  12.1 °C 29.84in /  1010.4hPa SSW 5.0mph /  8km/h 9.0mph /  14.5km/h 92% 0.42in /  10.7mm
06:10 55.9 °F /  13.3 °C 53.3 °F /  11.8 °C 29.84in /  1010.4hPa SSW 5.0mph /  8km/h 11.0mph /  17.7km/h 91% 0.42in /  10.7mm
06:15 55.8 °F /  13.2 °C 53.2 °F /  11.8 °C 29.84in /  1010.4hPa SSW 4.0mph /  6.4km/h 11.0mph /  17.7km/h 91% 0.42in /  10.7mm
06:20 56.0 °F /  13.3 °C 53.7 °F /  12.1 °C 29.84in /  1010.4hPa SSW 3.0mph /  4.8km/h 10.0mph /  16.1km/h 92% 0.42in /  10.7mm
06:25 56.0 °F /  13.3 °C 53.7 °F /  12.1 °C 29.84in /  1010.4hPa South 4.0mph /  6.4km/h 10.0mph /  16.1km/h 92% 0.42in /  10.7mm
06:30 56.1 °F /  13.4 °C 53.8 °F /  12.1 °C 29.85in /  1010.7hPa SSW 4.0mph /  6.4km/h 7.0mph /  11.3km/h 92% 0.42in /  10.7mm
06:35 56.3 °F /  13.5 °C 54.0 °F /  12.2 °C 29.85in /  1010.7hPa SSW 4.0mph /  6.4km/h 9.0mph /  14.5km/h 92% 0.42in /  10.7mm
06:40 56.5 °F /  13.6 °C 54.2 °F /  12.3 °C 29.85in /  1010.7hPa SSW 5.0mph /  8km/h 9.0mph /  14.5km/h 92% 0.42in /  10.7mm
06:45 56.8 °F /  13.8 °C 54.5 °F /  12.5 °C 29.86in /  1011.1hPa SSW 4.0mph /  6.4km/h 9.0mph /  14.5km/h 92% 0.42in /  10.7mm
06:50 57.1 °F /  13.9 °C 54.8 °F /  12.7 °C 29.86in /  1011.1hPa SW 5.0mph /  8km/h 8.0mph /  12.9km/h 92% 0.42in /  10.7mm
06:55 57.3 °F /  14.1 °C 55.0 °F /  12.8 °C 29.86in /  1011.1hPa SSW 4.0mph /  6.4km/h 9.0mph /  14.5km/h 92% 0.42in /  10.7mm
07:00 57.5 °F /  14.2 °C 55.2 °F /  12.9 °C 29.86in /  1011.1hPa South 5.0mph /  8km/h 9.0mph /  14.5km/h 92% 0.42in /  10.7mm
07:05 58.0 °F /  14.4 °C 55.7 °F /  13.2 °C 29.86in /  1011.1hPa SSW 2.0mph /  3.2km/h 9.0mph /  14.5km/h 92% 0.42in /  10.7mm
07:10 58.3 °F /  14.6 °C 56.0 °F /  13.3 °C 29.86in /  1011.1hPa South 6.0mph /  9.7km/h 12.0mph /  19.3km/h 92% 0.42in /  10.7mm
07:15 58.7 °F /  14.8 °C 56.1 °F /  13.4 °C 29.85in /  1010.7hPa SSW 6.0mph /  9.7km/h 12.0mph /  19.3km/h 91% 0.42in /  10.7mm
07:20 59.0 °F /  15 °C 56.4 °F /  13.6 °C 29.85in /  1010.7hPa SSW 5.0mph /  8km/h 12.0mph /  19.3km/h 91% 0.42in /  10.7mm
07:25 59.3 °F /  15.2 °C 56.4 °F /  13.6 °C 29.85in /  1010.7hPa SSW 7.0mph /  11.3km/h 13.0mph /  20.9km/h 90% 0.42in /  10.7mm
07:30 59.6 °F /  15.3 °C 56.7 °F /  13.7 °C 29.86in /  1011.1hPa SSW 10.0mph /  16.1km/h 16.0mph /  25.7km/h 90% 0.42in /  10.7mm
07:35 59.9 °F /  15.5 °C 57.0 °F /  13.9 °C 29.86in /  1011.1hPa SSW 8.0mph /  12.9km/h 16.0mph /  25.7km/h 90% 0.42in /  10.7mm
07:40 60.2 °F /  15.7 °C 56.9 °F /  13.8 °C 29.86in /  1011.1hPa South 7.0mph /  11.3km/h 15.0mph /  24.1km/h 89% 0.42in /  10.7mm
07:45 60.4 °F /  15.8 °C 57.1 °F /  13.9 °C 29.86in /  1011.1hPa SSW 8.0mph /  12.9km/h 16.0mph /  25.7km/h 89% 0.42in /  10.7mm
07:50 60.5 °F /  15.8 °C 57.2 °F /  14 °C 29.86in /  1011.1hPa SSW 6.0mph /  9.7km/h 16.0mph /  25.7km/h 89% 0.42in /  10.7mm
07:55 60.7 °F /  15.9 °C 57.4 °F /  14.1 °C 29.87in /  1011.4hPa SSW 7.0mph /  11.3km/h 15.0mph /  24.1km/h 89% 0.42in /  10.7mm
08:00 60.9 °F /  16.1 °C 57.6 °F /  14.2 °C 29.87in /  1011.4hPa South 8.0mph /  12.9km/h 15.0mph /  24.1km/h 89% 0.42in /  10.7mm
08:05 61.1 °F /  16.2 °C 57.5 °F /  14.2 °C 29.87in /  1011.4hPa SSW 6.0mph /  9.7km/h 15.0mph /  24.1km/h 88% 0.42in /  10.7mm
08:10 61.2 °F /  16.2 °C 57.6 °F /  14.2 °C 29.87in /  1011.4hPa SSW 6.0mph /  9.7km/h 14.0mph /  22.5km/h 88% 0.42in /  10.7mm
08:15 61.4 °F /  16.3 °C 57.8 °F /  14.3 °C 29.88in /  1011.7hPa SSW 7.0mph /  11.3km/h 15.0mph /  24.1km/h 88% 0.42in /  10.7mm
08:20 61.8 °F /  16.6 °C 58.2 °F /  14.6 °C 29.88in /  1011.7hPa SSW 5.0mph /  8km/h 15.0mph /  24.1km/h 88% 0.42in /  10.7mm
08:25 62.0 °F /  16.7 °C 58.1 °F /  14.5 °C 29.88in /  1011.7hPa SSW 9.0mph /  14.5km/h 17.0mph /  27.4km/h 87% 0.42in /  10.7mm
08:30 62.1 °F /  16.7 °C 58.2 °F /  14.6 °C 29.88in /  1011.7hPa SSW 8.0mph /  12.9km/h 22.0mph /  35.4km/h 87% 0.42in /  10.7mm
08:35 62.3 °F /  16.8 °C 58.4 °F /  14.7 °C 29.88in /  1011.7hPa SSW 7.0mph /  11.3km/h 22.0mph /  35.4km/h 87% 0.42in /  10.7mm
08:40 62.5 °F /  16.9 °C 58.6 °F /  14.8 °C 29.88in /  1011.7hPa SW 7.0mph /  11.3km/h 12.0mph /  19.3km/h 87% 0.42in /  10.7mm
08:45 62.7 °F /  17.1 °C 58.8 °F /  14.9 °C 29.88in /  1011.7hPa SSW 9.0mph /  14.5km/h 17.0mph /  27.4km/h 87% 0.42in /  10.7mm
08:50 62.9 °F /  17.2 °C 59.0 °F /  15 °C 29.88in /  1011.7hPa SSW 6.0mph /  9.7km/h 17.0mph /  27.4km/h 87% 0.42in /  10.7mm
08:55 63.4 °F /  17.4 °C 59.5 °F /  15.3 °C 29.88in /  1011.7hPa SSW 6.0mph /  9.7km/h 15.0mph /  24.1km/h 87% 0.42in /  10.7mm
09:00 63.6 °F /  17.6 °C 59.7 °F /  15.4 °C 29.88in /  1011.7hPa SSW 6.0mph /  9.7km/h 14.0mph /  22.5km/h 87% 0.42in /  10.7mm
09:05 64.0 °F /  17.8 °C 59.7 °F /  15.4 °C 29.88in /  1011.7hPa SSW 7.0mph /  11.3km/h 14.0mph /  22.5km/h 86% 0.42in /  10.7mm
09:10 64.3 °F /  17.9 °C 60.0 °F /  15.6 °C 29.89in /  1012.1hPa SSW 6.0mph /  9.7km/h 12.0mph /  19.3km/h 86% 0.42in /  10.7mm
09:15 64.4 °F /  18 °C 59.5 °F /  15.3 °C 29.88in /  1011.7hPa SSW 9.0mph /  14.5km/h 15.0mph /  24.1km/h 84% 0.42in /  10.7mm
09:20 64.8 °F /  18.2 °C 59.9 °F /  15.5 °C 29.88in /  1011.7hPa South 8.0mph /  12.9km/h 15.0mph /  24.1km/h 84% 0.42in /  10.7mm
09:25 64.8 °F /  18.2 °C 59.5 °F /  15.3 °C 29.88in /  1011.7hPa South 10.0mph /  16.1km/h 16.0mph /  25.7km/h 83% 0.42in /  10.7mm
09:30 64.8 °F /  18.2 °C 59.9 °F /  15.5 °C 29.88in /  1011.7hPa SSW 7.0mph /  11.3km/h 16.0mph /  25.7km/h 84% 0.42in /  10.7mm
09:35 65.2 °F /  18.4 °C 59.9 °F /  15.5 °C 29.88in /  1011.7hPa SSW 9.0mph /  14.5km/h 15.0mph /  24.1km/h 83% 0.42in /  10.7mm
09:40 65.3 °F /  18.5 °C 60.0 °F /  15.6 °C 29.88in /  1011.7hPa SSW 8.0mph /  12.9km/h 15.0mph /  24.1km/h 83% 0.42in /  10.7mm
09:45 65.4 °F /  18.6 °C 60.1 °F /  15.6 °C 29.88in /  1011.7hPa SSW 7.0mph /  11.3km/h 15.0mph /  24.1km/h 83% 0.42in /  10.7mm
09:50 65.1 °F /  18.4 °C 59.8 °F /  15.4 °C 29.88in /  1011.7hPa SSW 7.0mph /  11.3km/h 15.0mph /  24.1km/h 83% 0.42in /  10.7mm
09:55 65.1 °F /  18.4 °C 59.8 °F /  15.4 °C 29.88in /  1011.7hPa SSW 7.0mph /  11.3km/h 14.0mph /  22.5km/h 83% 0.42in /  10.7mm
10:00 65.5 °F /  18.6 °C 60.5 °F /  15.8 °C 29.88in /  1011.7hPa South 5.0mph /  8km/h 12.0mph /  19.3km/h 84% 0.42in /  10.7mm
10:05 66.0 °F /  18.9 °C 60.7 °F /  15.9 °C 29.88in /  1011.7hPa South 4.0mph /  6.4km/h 11.0mph /  17.7km/h 83% 0.42in /  10.7mm
10:10 66.4 °F /  19.1 °C 60.7 °F /  15.9 °C 29.88in /  1011.7hPa South 6.0mph /  9.7km/h 14.0mph /  22.5km/h 82% 0.42in /  10.7mm
10:15 67.0 °F /  19.4 °C 61.0 °F /  16.1 °C 29.88in /  1011.7hPa SSW 7.0mph /  11.3km/h 14.0mph /  22.5km/h 81% 0.42in /  10.7mm
10:25 67.4 °F /  19.7 °C 61.4 °F /  16.3 °C 29.88in /  1011.7hPa South 5.0mph /  8km/h 15.0mph /  24.1km/h 81% 0.42in /  10.7mm
10:35 68.1 °F /  20.1 °C 61.3 °F /  16.3 °C 29.89in /  1012.1hPa SSW 6.0mph /  9.7km/h 13.0mph /  20.9km/h 79% 0.42in /  10.7mm
10:40 68.5 °F /  20.3 °C 61.4 °F /  16.3 °C 29.88in /  1011.7hPa SSW 6.0mph /  9.7km/h 13.0mph /  20.9km/h 78% 0.42in /  10.7mm
10:45 68.5 °F /  20.3 °C 61.0 °F /  16.1 °C 29.88in /  1011.7hPa SSW 8.0mph /  12.9km/h 12.0mph /  19.3km/h 77% 0.42in /  10.7mm
10:55 69.4 °F /  20.8 °C 61.5 °F /  16.4 °C 29.87in /  1011.4hPa SSW 6.0mph /  9.7km/h 13.0mph /  20.9km/h 76% 0.42in /  10.7mm
11:00 69.7 °F /  20.9 °C 61.4 °F /  16.3 °C 29.87in /  1011.4hPa SSW 8.0mph /  12.9km/h 17.0mph /  27.4km/h 75% 0.42in /  10.7mm
11:05 69.5 °F /  20.8 °C 61.2 °F /  16.2 °C 29.87in /  1011.4hPa SSW 6.0mph /  9.7km/h 19.0mph /  30.6km/h 75% 0.42in /  10.7mm
11:10 69.8 °F /  21 °C 61.5 °F /  16.4 °C 29.86in /  1011.1hPa SSW 5.0mph /  8km/h 19.0mph /  30.6km/h 75% 0.42in /  10.7mm
11:15 69.7 °F /  20.9 °C 61.4 °F /  16.3 °C 29.86in /  1011.1hPa SW 8.0mph /  12.9km/h 17.0mph /  27.4km/h 75% 0.42in /  10.7mm
11:20 69.8 °F /  21 °C 61.1 °F /  16.2 °C 29.87in /  1011.4hPa SSW 9.0mph /  14.5km/h 14.0mph /  22.5km/h 74% 0.42in /  10.7mm
11:25 70.3 °F /  21.3 °C 62.0 °F /  16.7 °C 29.87in /  1011.4hPa SW 5.0mph /  8km/h 13.0mph /  20.9km/h 75% 0.42in /  10.7mm
11:30 70.4 °F /  21.3 °C 61.3 °F /  16.3 °C 29.86in /  1011.1hPa SSW 8.0mph /  12.9km/h 14.0mph /  22.5km/h 73% 0.42in /  10.7mm
11:35 70.5 °F /  21.4 °C 61.4 °F /  16.3 °C 29.86in /  1011.1hPa SW 6.0mph /  9.7km/h 14.0mph /  22.5km/h 73% 0.42in /  10.7mm
11:40 70.8 °F /  21.6 °C 61.3 °F /  16.3 °C 29.86in /  1011.1hPa South 8.0mph /  12.9km/h 14.0mph /  22.5km/h 72% 0.42in /  10.7mm
11:45 70.9 °F /  21.6 °C 61.8 °F /  16.6 °C 29.86in /  1011.1hPa SW 8.0mph /  12.9km/h 15.0mph /  24.1km/h 73% 0.42in /  10.7mm
11:50 70.9 °F /  21.6 °C 62.2 °F /  16.8 °C 29.85in /  1010.7hPa SW 6.0mph /  9.7km/h 15.0mph /  24.1km/h 74% 0.42in /  10.7mm
11:55 71.5 °F /  21.9 °C 62.0 °F /  16.7 °C 29.85in /  1010.7hPa WSW 6.0mph /  9.7km/h 11.0mph /  17.7km/h 72% 0.42in /  10.7mm
12:00 72.2 °F /  22.3 °C 62.3 °F /  16.8 °C 29.85in /  1010.7hPa SW 6.0mph /  9.7km/h 11.0mph /  17.7km/h 71% 0.42in /  10.7mm
12:05 72.2 °F /  22.3 °C 62.3 °F /  16.8 °C 29.85in /  1010.7hPa South 7.0mph /  11.3km/h 12.0mph /  19.3km/h 71% 0.42in /  10.7mm
12:10 72.4 °F /  22.4 °C 62.1 °F /  16.7 °C 29.85in /  1010.7hPa SSW 4.0mph /  6.4km/h 14.0mph /  22.5km/h 70% 0.42in /  10.7mm
12:15 72.5 °F /  22.5 °C 62.2 °F /  16.8 °C 29.84in /  1010.4hPa SW 3.0mph /  4.8km/h 14.0mph /  22.5km/h 70% 0.42in /  10.7mm
12:20 73.1 °F /  22.8 °C 62.3 °F /  16.8 °C 29.84in /  1010.4hPa SW 4.0mph /  6.4km/h 11.0mph /  17.7km/h 69% 0.42in /  10.7mm
12:25 73.3 °F /  22.9 °C 62.1 °F /  16.7 °C 29.84in /  1010.4hPa SW 5.0mph /  8km/h 10.0mph /  16.1km/h 68% 0.42in /  10.7mm
12:30 73.2 °F /  22.9 °C 62.4 °F /  16.9 °C 29.84in /  1010.4hPa SW 3.0mph /  4.8km/h 10.0mph /  16.1km/h 69% 0.42in /  10.7mm
12:35 73.7 °F /  23.2 °C 62.1 °F /  16.7 °C 29.84in /  1010.4hPa SSW 2.0mph /  3.2km/h 10.0mph /  16.1km/h 67% 0.42in /  10.7mm
12:40 74.6 °F /  23.7 °C 62.5 °F /  16.9 °C 29.84in /  1010.4hPa SSW 4.0mph /  6.4km/h 10.0mph /  16.1km/h 66% 0.42in /  10.7mm
12:45 74.8 °F /  23.8 °C 63.1 °F /  17.3 °C 29.84in /  1010.4hPa SSW 2.0mph /  3.2km/h 9.0mph /  14.5km/h 67% 0.42in /  10.7mm
12:50 74.5 °F /  23.6 °C 62.4 °F /  16.9 °C 29.84in /  1010.4hPa SW 5.0mph /  8km/h 10.0mph /  16.1km/h 66% 0.42in /  10.7mm
12:55 73.8 °F /  23.2 °C 61.7 °F /  16.5 °C 29.83in /  1010hPa SSW 1.0mph /  1.6km/h 10.0mph /  16.1km/h 66% 0.42in /  10.7mm
13:00 73.4 °F /  23 °C 61.8 °F /  16.6 °C 29.83in /  1010hPa South 1.0mph /  1.6km/h 10.0mph /  16.1km/h 67% 0.42in /  10.7mm
13:05 73.2 °F /  22.9 °C 61.6 °F /  16.4 °C 29.83in /  1010hPa SW 3.0mph /  4.8km/h 10.0mph /  16.1km/h 67% 0.42in /  10.7mm
13:10 73.6 °F /  23.1 °C 62.4 °F /  16.9 °C 29.83in /  1010hPa SSW 3.0mph /  4.8km/h 8.0mph /  12.9km/h 68% 0.42in /  10.7mm
13:15 74.6 °F /  23.7 °C 62.5 °F /  16.9 °C 29.83in /  1010hPa SSW 5.0mph /  8km/h 8.0mph /  12.9km/h 66% 0.42in /  10.7mm
13:20 75.2 °F /  24 °C 62.6 °F /  17 °C 29.83in /  1010hPa South 4.0mph /  6.4km/h 9.0mph /  14.5km/h 65% 0.42in /  10.7mm
13:25 74.5 °F /  23.6 °C 62.4 °F /  16.9 °C 29.83in /  1010hPa SSW 2.0mph /  3.2km/h 9.0mph /  14.5km/h 66% 0.42in /  10.7mm
13:30 74.6 °F /  23.7 °C 62.5 °F /  16.9 °C 29.83in /  1010hPa SSW 2.0mph /  3.2km/h 8.0mph /  12.9km/h 66% 0.42in /  10.7mm
13:35 75.5 °F /  24.2 °C 62.9 °F /  17.2 °C 29.82in /  1009.7hPa SW 2.0mph /  3.2km/h 8.0mph /  12.9km/h 65% 0.42in /  10.7mm
13:45 74.9 °F /  23.8 °C 63.2 °F /  17.3 °C 29.82in /  1009.7hPa SSW 1.0mph /  1.6km/h 11.0mph /  17.7km/h 67% 0.42in /  10.7mm
13:50 75.7 °F /  24.3 °C 62.2 °F /  16.8 °C 29.82in /  1009.7hPa SSW 5.0mph /  8km/h 9.0mph /  14.5km/h 63% 0.42in /  10.7mm
13:55 76.1 °F /  24.5 °C 63.1 °F /  17.3 °C 29.82in /  1009.7hPa SSW 3.0mph /  4.8km/h 12.0mph /  19.3km/h 64% 0.42in /  10.7mm
14:00 76.2 °F /  24.6 °C 63.6 °F /  17.6 °C 29.82in /  1009.7hPa South 2.0mph /  3.2km/h 12.0mph /  19.3km/h 65% 0.42in /  10.7mm
14:05 77.1 °F /  25.1 °C 63.1 °F /  17.3 °C 29.81in /  1009.4hPa South 2.0mph /  3.2km/h 9.0mph /  14.5km/h 62% 0.42in /  10.7mm
14:15 78.0 °F /  25.6 °C 63.5 °F /  17.5 °C 29.81in /  1009.4hPa WSW 5.0mph /  8km/h 14.0mph /  22.5km/h 61% 0.42in /  10.7mm
14:20 78.7 °F /  25.9 °C 63.7 °F /  17.6 °C 29.81in /  1009.4hPa SW 6.0mph /  9.7km/h 15.0mph /  24.1km/h 60% 0.42in /  10.7mm
14:25 78.9 °F /  26.1 °C 63.4 °F /  17.4 °C 29.81in /  1009.4hPa SSW 6.0mph /  9.7km/h 15.0mph /  24.1km/h 59% 0.42in /  10.7mm
14:30 78.5 °F /  25.8 °C 63.0 °F /  17.2 °C 29.80in /  1009hPa SSW 6.0mph /  9.7km/h 12.0mph /  19.3km/h 59% 0.42in /  10.7mm
14:35 78.3 °F /  25.7 °C 62.3 °F /  16.8 °C 29.80in /  1009hPa SSW 7.0mph /  11.3km/h 12.0mph /  19.3km/h 58% 0.42in /  10.7mm
14:40 78.2 °F /  25.7 °C 62.7 °F /  17.1 °C 29.80in /  1009hPa SSW 5.0mph /  8km/h 16.0mph /  25.7km/h 59% 0.42in /  10.7mm
14:45 77.5 °F /  25.3 °C 62.1 °F /  16.7 °C 29.80in /  1009hPa SSW 9.0mph /  14.5km/h 18.0mph /  29km/h 59% 0.42in /  10.7mm
14:50 77.6 °F /  25.3 °C 62.2 °F /  16.8 °C 29.79in /  1008.7hPa SSW 9.0mph /  14.5km/h 18.0mph /  29km/h 59% 0.42in /  10.7mm
15:00 77.6 °F /  25.3 °C 62.6 °F /  17 °C 29.79in /  1008.7hPa WSW 7.0mph /  11.3km/h 15.0mph /  24.1km/h 60% 0.42in /  10.7mm
15:05 77.1 °F /  25.1 °C 63.1 °F /  17.3 °C 29.79in /  1008.7hPa SW 6.0mph /  9.7km/h 15.0mph /  24.1km/h 62% 0.42in /  10.7mm
15:10 77.4 °F /  25.2 °C 62.4 °F /  16.9 °C 29.78in /  1008.4hPa SW 8.0mph /  12.9km/h 15.0mph /  24.1km/h 60% 0.42in /  10.7mm
15:15 77.7 °F /  25.4 °C 63.2 °F /  17.3 °C 29.77in /  1008hPa SW 8.0mph /  12.9km/h 16.0mph /  25.7km/h 61% 0.42in /  10.7mm
15:20 77.9 °F /  25.5 °C 63.8 °F /  17.7 °C 29.77in /  1008hPa SW 7.0mph /  11.3km/h 16.0mph /  25.7km/h 62% 0.42in /  10.7mm
15:25 78.5 °F /  25.8 °C 63.9 °F /  17.7 °C 29.77in /  1008hPa SW 4.0mph /  6.4km/h 15.0mph /  24.1km/h 61% 0.42in /  10.7mm
15:30 78.7 °F /  25.9 °C 63.7 °F /  17.6 °C 29.77in /  1008hPa SW 11.0mph /  17.7km/h 18.0mph /  29km/h 60% 0.42in /  10.7mm
15:35 78.7 °F /  25.9 °C 64.1 °F /  17.8 °C 29.76in /  1007.7hPa SW 8.0mph /  12.9km/h 18.0mph /  29km/h 61% 0.42in /  10.7mm
15:40 79.3 °F /  26.3 °C 63.7 °F /  17.6 °C 29.76in /  1007.7hPa SSW 8.0mph /  12.9km/h 15.0mph /  24.1km/h 59% 0.42in /  10.7mm
15:45 79.3 °F /  26.3 °C 63.7 °F /  17.6 °C 29.76in /  1007.7hPa SSW 9.0mph /  14.5km/h 17.0mph /  27.4km/h 59% 0.42in /  10.7mm
15:50 79.5 °F /  26.4 °C 63.9 °F /  17.7 °C 29.76in /  1007.7hPa SW 9.0mph /  14.5km/h 17.0mph /  27.4km/h 59% 0.42in /  10.7mm
15:55 79.6 °F /  26.4 °C 64.0 °F /  17.8 °C 29.75in /  1007.3hPa SSW 6.0mph /  9.7km/h 15.0mph /  24.1km/h 59% 0.42in /  10.7mm
16:00 80.1 °F /  26.7 °C 64.0 °F /  17.8 °C 29.75in /  1007.3hPa SSW 6.0mph /  9.7km/h 15.0mph /  24.1km/h 58% 0.42in /  10.7mm
16:10 79.9 °F /  26.6 °C 63.8 °F /  17.7 °C 29.75in /  1007.3hPa SSW 11.0mph /  17.7km/h 19.0mph /  30.6km/h 58% 0.42in /  10.7mm
16:15 80.1 °F /  26.7 °C 64.5 °F /  18.1 °C 29.74in /  1007hPa SSW 5.0mph /  8km/h 19.0mph /  30.6km/h 59% 0.42in /  10.7mm
16:20 80.0 °F /  26.7 °C 63.4 °F /  17.4 °C 29.74in /  1007hPa South 8.0mph /  12.9km/h 18.0mph /  29km/h 57% 0.42in /  10.7mm
16:25 80.0 °F /  26.7 °C 62.9 °F /  17.2 °C 29.74in /  1007hPa SSW 8.0mph /  12.9km/h 18.0mph /  29km/h 56% 0.42in /  10.7mm
16:30 80.0 °F /  26.7 °C 62.4 °F /  16.9 °C 29.73in /  1006.7hPa SSW 11.0mph /  17.7km/h 21.0mph /  33.8km/h 55% 0.42in /  10.7mm
16:35 80.1 °F /  26.7 °C 62.0 °F /  16.7 °C 29.73in /  1006.7hPa SSW 12.0mph /  19.3km/h 22.0mph /  35.4km/h 54% 0.42in /  10.7mm
16:45 79.8 °F /  26.6 °C 61.7 °F /  16.5 °C 29.72in /  1006.3hPa South 8.0mph /  12.9km/h 22.0mph /  35.4km/h 54% 0.42in /  10.7mm
16:50 80.3 °F /  26.8 °C 61.1 °F /  16.2 °C 29.72in /  1006.3hPa SSW 5.0mph /  8km/h 18.0mph /  29km/h 52% 0.42in /  10.7mm
16:55 80.6 °F /  27 °C 61.4 °F /  16.3 °C 29.72in /  1006.3hPa SSW 7.0mph /  11.3km/h 16.0mph /  25.7km/h 52% 0.42in /  10.7mm
17:00 80.1 °F /  26.7 °C 60.4 °F /  15.8 °C 29.72in /  1006.3hPa SSW 9.0mph /  14.5km/h 22.0mph /  35.4km/h 51% 0.42in /  10.7mm
17:05 80.0 °F /  26.7 °C 60.8 °F /  16 °C 29.72in /  1006.3hPa SSW 10.0mph /  16.1km/h 22.0mph /  35.4km/h 52% 0.42in /  10.7mm
17:10 79.7 °F /  26.5 °C 61.1 °F /  16.2 °C 29.72in /  1006.3hPa SSW 7.0mph /  11.3km/h 20.0mph /  32.2km/h 53% 0.42in /  10.7mm
17:15 79.5 °F /  26.4 °C 60.9 °F /  16.1 °C 29.72in /  1006.3hPa SW 11.0mph /  17.7km/h 21.0mph /  33.8km/h 53% 0.42in /  10.7mm
17:20 79.5 °F /  26.4 °C 60.4 °F /  15.8 °C 29.72in /  1006.3hPa SW 13.0mph /  20.9km/h 21.0mph /  33.8km/h 52% 0.42in /  10.7mm
17:25 79.3 °F /  26.3 °C 61.2 °F /  16.2 °C 29.72in /  1006.3hPa SSW 8.0mph /  12.9km/h 21.0mph /  33.8km/h 54% 0.42in /  10.7mm
17:30 79.4 °F /  26.3 °C 61.3 °F /  16.3 °C 29.72in /  1006.3hPa SW 12.0mph /  19.3km/h 21.0mph /  33.8km/h 54% 0.42in /  10.7mm
17:35 79.2 °F /  26.2 °C 60.6 °F /  15.9 °C 29.71in /  1006hPa SW 11.0mph /  17.7km/h 21.0mph /  33.8km/h 53% 0.42in /  10.7mm
17:40 79.1 °F /  26.2 °C 61.1 °F /  16.2 °C 29.72in /  1006.3hPa South 7.0mph /  11.3km/h 21.0mph /  33.8km/h 54% 0.42in /  10.7mm
17:45 78.8 °F /  26 °C 60.8 °F /  16 °C 29.71in /  1006hPa SSW 9.0mph /  14.5km/h 19.0mph /  30.6km/h 54% 0.42in /  10.7mm
17:50 78.3 °F /  25.7 °C 60.3 °F /  15.7 °C 29.70in /  1005.6hPa SW 12.0mph /  19.3km/h 22.0mph /  35.4km/h 54% 0.42in /  10.7mm
17:55 78.1 °F /  25.6 °C 60.6 °F /  15.9 °C 29.70in /  1005.6hPa SSW 8.0mph /  12.9km/h 22.0mph /  35.4km/h 55% 0.42in /  10.7mm
18:00 78.0 °F /  25.6 °C 60.5 °F /  15.8 °C 29.70in /  1005.6hPa SSW 9.0mph /  14.5km/h 22.0mph /  35.4km/h 55% 0.42in /  10.7mm
18:05 77.6 °F /  25.3 °C 60.7 °F /  15.9 °C 29.69in /  1005.3hPa SSW 7.0mph /  11.3km/h 22.0mph /  35.4km/h 56% 0.42in /  10.7mm
18:10 77.6 °F /  25.3 °C 60.2 °F /  15.7 °C 29.69in /  1005.3hPa SSW 12.0mph /  19.3km/h 21.0mph /  33.8km/h 55% 0.42in /  10.7mm
18:15 77.8 °F /  25.4 °C 60.4 °F /  15.8 °C 29.70in /  1005.6hPa SSW 9.0mph /  14.5km/h 21.0mph /  33.8km/h 55% 0.42in /  10.7mm
18:20 77.6 °F /  25.3 °C 60.7 °F /  15.9 °C 29.69in /  1005.3hPa SSW 11.0mph /  17.7km/h 21.0mph /  33.8km/h 56% 0.42in /  10.7mm
18:25 77.4 °F /  25.2 °C 61.0 °F /  16.1 °C 29.70in /  1005.6hPa SW 7.0mph /  11.3km/h 21.0mph /  33.8km/h 57% 0.42in /  10.7mm
18:30 77.3 °F /  25.2 °C 60.9 °F /  16.1 °C 29.70in /  1005.6hPa SSW 7.0mph /  11.3km/h 18.0mph /  29km/h 57% 0.42in /  10.7mm
18:45 77.2 °F /  25.1 °C 60.3 °F /  15.7 °C 29.69in /  1005.3hPa SSW 7.0mph /  11.3km/h 15.0mph /  24.1km/h 56% 0.42in /  10.7mm
18:50 77.0 °F /  25 °C 60.1 °F /  15.6 °C 29.69in /  1005.3hPa SSW 12.0mph /  19.3km/h 26.0mph /  41.8km/h 56% 0.42in /  10.7mm
18:55 76.8 °F /  24.9 °C 60.4 °F /  15.8 °C 29.70in /  1005.6hPa SSW 8.0mph /  12.9km/h 26.0mph /  41.8km/h 57% 0.42in /  10.7mm
19:05 76.4 °F /  24.7 °C 60.6 °F /  15.9 °C 29.70in /  1005.6hPa SSW 9.0mph /  14.5km/h 20.0mph /  32.2km/h 58% 0.42in /  10.7mm
19:10 76.3 °F /  24.6 °C 60.5 °F /  15.8 °C 29.69in /  1005.3hPa SSW 6.0mph /  9.7km/h 20.0mph /  32.2km/h 58% 0.42in /  10.7mm
19:15 76.0 °F /  24.4 °C 60.7 °F /  15.9 °C 29.69in /  1005.3hPa SSW 8.0mph /  12.9km/h 17.0mph /  27.4km/h 59% 0.42in /  10.7mm
19:20 75.8 °F /  24.3 °C 60.5 °F /  15.8 °C 29.69in /  1005.3hPa SSW 5.0mph /  8km/h 17.0mph /  27.4km/h 59% 0.42in /  10.7mm
19:25 75.5 °F /  24.2 °C 60.7 °F /  15.9 °C 29.68in /  1005hPa SSW 11.0mph /  17.7km/h 17.0mph /  27.4km/h 60% 0.42in /  10.7mm
19:30 75.3 °F /  24.1 °C 60.5 °F /  15.8 °C 29.68in /  1005hPa South 7.0mph /  11.3km/h 17.0mph /  27.4km/h 60% 0.42in /  10.7mm
19:35 75.1 °F /  23.9 °C 60.8 °F /  16 °C 29.68in /  1005hPa SSW 6.0mph /  9.7km/h 15.0mph /  24.1km/h 61% 0.42in /  10.7mm
19:40 74.9 °F /  23.8 °C 60.6 °F /  15.9 °C 29.67in /  1004.6hPa SW 3.0mph /  4.8km/h 15.0mph /  24.1km/h 61% 0.42in /  10.7mm
19:45 74.8 °F /  23.8 °C 60.5 °F /  15.8 °C 29.67in /  1004.6hPa SSW 7.0mph /  11.3km/h 12.0mph /  19.3km/h 61% 0.42in /  10.7mm
19:50 74.8 °F /  23.8 °C 60.5 °F /  15.8 °C 29.67in /  1004.6hPa SSW 7.0mph /  11.3km/h 12.0mph /  19.3km/h 61% 0.42in /  10.7mm
19:55 74.8 °F /  23.8 °C 60.5 °F /  15.8 °C 29.67in /  1004.6hPa South 5.0mph /  8km/h 16.0mph /  25.7km/h 61% 0.42in /  10.7mm
20:00 74.3 °F /  23.5 °C 60.5 °F /  15.8 °C 29.67in /  1004.6hPa South 3.0mph /  4.8km/h 16.0mph /  25.7km/h 62% 0.42in /  10.7mm
20:05 74.0 °F /  23.3 °C 60.2 °F /  15.7 °C 29.67in /  1004.6hPa SSE 2.0mph /  3.2km/h 10.0mph /  16.1km/h 62% 0.42in /  10.7mm
20:10 73.8 °F /  23.2 °C 60.4 °F /  15.8 °C 29.67in /  1004.6hPa South 3.0mph /  4.8km/h 8.0mph /  12.9km/h 63% 0.42in /  10.7mm
20:15 73.5 °F /  23.1 °C 60.6 °F /  15.9 °C 29.67in /  1004.6hPa South 3.0mph /  4.8km/h 9.0mph /  14.5km/h 64% 0.42in /  10.7mm
20:20 73.2 °F /  22.9 °C 60.3 °F /  15.7 °C 29.66in /  1004.3hPa SSW 2.0mph /  3.2km/h 9.0mph /  14.5km/h 64% 0.42in /  10.7mm
20:25 72.4 °F /  22.4 °C 60.0 °F /  15.6 °C 29.66in /  1004.3hPa SSW 2.0mph /  3.2km/h 7.0mph /  11.3km/h 65% 0.42in /  10.7mm
20:30 72.1 °F /  22.3 °C 60.6 °F /  15.9 °C 29.66in /  1004.3hPa South 3.0mph /  4.8km/h 10.0mph /  16.1km/h 67% 0.42in /  10.7mm
20:35 72.0 °F /  22.2 °C 60.5 °F /  15.8 °C 29.65in /  1003.9hPa Calm   10.0mph /  16.1km/h 67% 0.42in /  10.7mm
20:40 71.5 °F /  21.9 °C 60.4 °F /  15.8 °C 29.65in /  1003.9hPa SSE 1.0mph /  1.6km/h 7.0mph /  11.3km/h 68% 0.42in /  10.7mm
20:45 71.5 °F /  21.9 °C 60.8 °F /  16 °C 29.64in /  1003.6hPa Calm   7.0mph /  11.3km/h 69% 0.42in /  10.7mm
20:50 71.6 °F /  22 °C 60.9 °F /  16.1 °C 29.64in /  1003.6hPa SE 1.0mph /  1.6km/h 8.0mph /  12.9km/h 69% 0.42in /  10.7mm
20:55 71.6 °F /  22 °C 60.9 °F /  16.1 °C 29.64in /  1003.6hPa SSE 4.0mph /  6.4km/h 10.0mph /  16.1km/h 69% 0.42in /  10.7mm
21:00 71.6 °F /  22 °C 60.9 °F /  16.1 °C 29.64in /  1003.6hPa SSE 4.0mph /  6.4km/h 10.0mph /  16.1km/h 69% 0.42in /  10.7mm
21:05 71.6 °F /  22 °C 60.9 °F /  16.1 °C 29.63in /  1003.3hPa South 1.0mph /  1.6km/h 7.0mph /  11.3km/h 69% 0.42in /  10.7mm
21:10 71.3 °F /  21.8 °C 61.0 °F /  16.1 °C 29.63in /  1003.3hPa SSW 3.0mph /  4.8km/h 8.0mph /  12.9km/h 70% 0.42in /  10.7mm
21:15 71.6 °F /  22 °C 61.3 °F /  16.3 °C 29.64in /  1003.6hPa South 5.0mph /  8km/h 14.0mph /  22.5km/h 70% 0.42in /  10.7mm
21:20 71.6 °F /  22 °C 61.3 °F /  16.3 °C 29.64in /  1003.6hPa South 6.0mph /  9.7km/h 14.0mph /  22.5km/h 70% 0.42in /  10.7mm
21:25 71.6 °F /  22 °C 61.3 °F /  16.3 °C 29.64in /  1003.6hPa SSW 3.0mph /  4.8km/h 12.0mph /  19.3km/h 70% 0.42in /  10.7mm
21:30 71.6 °F /  22 °C 61.3 °F /  16.3 °C 29.64in /  1003.6hPa South 3.0mph /  4.8km/h 10.0mph /  16.1km/h 70% 0.42in /  10.7mm
21:35 71.6 °F /  22 °C 61.3 °F /  16.3 °C 29.65in /  1003.9hPa SSW 3.0mph /  4.8km/h 12.0mph /  19.3km/h 70% 0.42in /  10.7mm
21:40 71.7 °F /  22.1 °C 61.4 °F /  16.3 °C 29.66in /  1004.3hPa SSW 7.0mph /  11.3km/h 16.0mph /  25.7km/h 70% 0.42in /  10.7mm
21:45 71.8 °F /  22.1 °C 61.5 °F /  16.4 °C 29.65in /  1003.9hPa SSW 5.0mph /  8km/h 16.0mph /  25.7km/h 70% 0.42in /  10.7mm
21:50 71.9 °F /  22.2 °C 61.2 °F /  16.2 °C 29.65in /  1003.9hPa SSW 11.0mph /  17.7km/h 17.0mph /  27.4km/h 69% 0.42in /  10.7mm
21:55 72.2 °F /  22.3 °C 61.5 °F /  16.4 °C 29.64in /  1003.6hPa SSW 6.0mph /  9.7km/h 18.0mph /  29km/h 69% 0.42in /  10.7mm
22:00 72.0 °F /  22.2 °C 61.3 °F /  16.3 °C 29.64in /  1003.6hPa SSW 4.0mph /  6.4km/h 18.0mph /  29km/h 69% 0.42in /  10.7mm
22:05 71.8 °F /  22.1 °C 61.1 °F /  16.2 °C 29.64in /  1003.6hPa SSW 7.0mph /  11.3km/h 13.0mph /  20.9km/h 69% 0.42in /  10.7mm
22:10 72.0 °F /  22.2 °C 61.3 °F /  16.3 °C 29.64in /  1003.6hPa SSW 9.0mph /  14.5km/h 21.0mph /  33.8km/h 69% 0.42in /  10.7mm
22:15 72.1 °F /  22.3 °C 61.0 °F /  16.1 °C 29.64in /  1003.6hPa SSW 6.0mph /  9.7km/h 22.0mph /  35.4km/h 68% 0.42in /  10.7mm
22:20 72.1 °F /  22.3 °C 61.0 °F /  16.1 °C 29.64in /  1003.6hPa SSW 8.0mph /  12.9km/h 22.0mph /  35.4km/h 68% 0.42in /  10.7mm
22:25 72.2 °F /  22.3 °C 61.1 °F /  16.2 °C 29.64in /  1003.6hPa SSW 10.0mph /  16.1km/h 21.0mph /  33.8km/h 68% 0.42in /  10.7mm
22:30 72.2 °F /  22.3 °C 61.1 °F /  16.2 °C 29.64in /  1003.6hPa SSW 12.0mph /  19.3km/h 21.0mph /  33.8km/h 68% 0.42in /  10.7mm
22:35 72.1 °F /  22.3 °C 61.0 °F /  16.1 °C 29.64in /  1003.6hPa SW 8.0mph /  12.9km/h 22.0mph /  35.4km/h 68% 0.42in /  10.7mm
22:40 71.9 °F /  22.2 °C 61.2 °F /  16.2 °C 29.64in /  1003.6hPa South 9.0mph /  14.5km/h 25.0mph /  40.2km/h 69% 0.42in /  10.7mm
22:45 71.8 °F /  22.1 °C 61.1 °F /  16.2 °C 29.63in /  1003.3hPa SSW 10.0mph /  16.1km/h 25.0mph /  40.2km/h 69% 0.42in /  10.7mm
22:50 71.8 °F /  22.1 °C 61.1 °F /  16.2 °C 29.64in /  1003.6hPa SSW 12.0mph /  19.3km/h 23.0mph /  37km/h 69% 0.42in /  10.7mm
22:55 71.8 °F /  22.1 °C 61.1 °F /  16.2 °C 29.63in /  1003.3hPa SSW 8.0mph /  12.9km/h 23.0mph /  37km/h 69% 0.42in /  10.7mm
23:05 71.8 °F /  22.1 °C 61.5 °F /  16.4 °C 29.63in /  1003.3hPa SSW 8.0mph /  12.9km/h 23.0mph /  37km/h 70% 0.42in /  10.7mm
23:10 71.7 °F /  22.1 °C 61.4 °F /  16.3 °C 29.63in /  1003.3hPa SSW 12.0mph /  19.3km/h 23.0mph /  37km/h 70% 0.42in /  10.7mm
23:15 71.5 °F /  21.9 °C 61.6 °F /  16.4 °C 29.62in /  1002.9hPa SSW 11.0mph /  17.7km/h 29.0mph /  46.7km/h 71% 0.42in /  10.7mm
23:20 71.7 °F /  22.1 °C 61.4 °F /  16.3 °C 29.62in /  1002.9hPa SSW 8.0mph /  12.9km/h 39.0mph /  62.8km/h 70% 0.42in /  10.7mm
23:25 71.8 °F /  22.1 °C 61.5 °F /  16.4 °C 29.63in /  1003.3hPa SSW 12.0mph /  19.3km/h 39.0mph /  62.8km/h 70% 0.42in /  10.7mm
23:30 71.6 °F /  22 °C 61.7 °F /  16.5 °C 29.63in /  1003.3hPa SSW 10.0mph /  16.1km/h 30.0mph /  48.3km/h 71% 0.42in /  10.7mm
23:35 71.7 °F /  22.1 °C 61.8 °F /  16.6 °C 29.63in /  1003.3hPa SW 11.0mph /  17.7km/h 22.0mph /  35.4km/h 71% 0.42in /  10.7mm
23:40 71.7 °F /  22.1 °C 61.8 °F /  16.6 °C 29.63in /  1003.3hPa SSW 15.0mph /  24.1km/h 26.0mph /  41.8km/h 71% 0.42in /  10.7mm
23:45 71.8 °F /  22.1 °C 61.9 °F /  16.6 °C 29.63in /  1003.3hPa SSW 13.0mph /  20.9km/h 26.0mph /  41.8km/h 71% 0.42in /  10.7mm
23:50 71.6 °F /  22 °C 61.7 °F /  16.5 °C 29.63in /  1003.3hPa SSW 12.0mph /  19.3km/h 24.0mph /  38.6km/h 71% 0.42in /  10.7mm
23:55 71.5 °F /  21.9 °C 61.6 °F /  16.4 °C 29.63in /  1003.3hPa SSW 8.0mph /  12.9km/h 21.0mph /  33.8km/h 71% 0.42in /  10.7mm
Westford Weather
Compliments of Weather Underground

 
 
Current Radar Loop:

Copyright © WestfordWeather.net 2007-2014. All rights reserved.